createdAt,value
2019-06-10T00:00:44.122Z,16.77
2019-06-10T00:01:44.109Z,16.83
2019-06-10T00:02:44.105Z,16.71
2019-06-10T00:03:44.093Z,16.83
2019-06-10T00:04:44.084Z,16.78
2019-06-10T00:05:44.089Z,16.73
2019-06-10T00:06:44.060Z,16.74
2019-06-10T00:07:44.047Z,16.70
2019-06-10T00:08:44.038Z,16.83
2019-06-10T00:09:44.024Z,16.88
2019-06-10T00:10:44.015Z,16.85
2019-06-10T00:11:44.016Z,16.92
2019-06-10T00:12:44.001Z,16.85
2019-06-10T00:13:43.991Z,16.92
2019-06-10T00:14:43.973Z,16.83
2019-06-10T00:15:43.962Z,16.73
2019-06-10T00:16:43.954Z,16.77
2019-06-10T00:17:54.784Z,16.73
2019-06-10T00:18:45.776Z,16.73
2019-06-10T00:19:43.918Z,16.67
2019-06-10T00:20:43.907Z,16.73
2019-06-10T00:21:43.899Z,16.63
2019-06-10T00:22:43.886Z,16.68
2019-06-10T00:23:43.889Z,16.58
2019-06-10T00:24:43.868Z,16.60
2019-06-10T00:25:43.856Z,16.67
2019-06-10T00:26:43.844Z,16.59
2019-06-10T00:27:43.833Z,16.63
2019-06-10T00:28:43.824Z,16.62
2019-06-10T00:29:43.823Z,16.68
2019-06-10T00:30:43.800Z,16.70
2019-06-10T00:31:43.791Z,16.71
2019-06-10T00:32:43.781Z,16.62
2019-06-10T00:33:43.795Z,16.55
2019-06-10T00:34:43.762Z,16.50
2019-06-10T00:35:43.762Z,16.63
2019-06-10T00:36:43.737Z,16.50
2019-06-10T00:37:43.729Z,16.59
2019-06-10T00:38:43.716Z,16.59
2019-06-10T00:39:43.707Z,16.63
2019-06-10T00:40:43.709Z,16.65
2019-06-10T00:41:43.702Z,16.73
2019-06-10T00:42:43.678Z,16.71
2019-06-10T00:43:43.672Z,16.71
2019-06-10T00:44:43.655Z,16.86
2019-06-10T00:45:43.643Z,16.86
2019-06-10T00:46:43.633Z,16.74
2019-06-10T00:47:43.632Z,16.77
2019-06-10T00:48:43.609Z,16.75
2019-06-10T00:49:43.602Z,16.85
2019-06-10T00:50:43.589Z,16.74
2019-06-10T00:51:43.582Z,16.70
2019-06-10T00:52:45.370Z,16.68
2019-06-10T00:53:43.571Z,16.67
2019-06-10T00:54:43.545Z,16.62
2019-06-10T00:55:43.535Z,16.68
2019-06-10T00:56:43.525Z,16.68
2019-06-10T00:57:43.514Z,16.68
2019-06-10T00:58:43.505Z,16.63
2019-06-10T00:59:43.502Z,16.62
2019-06-10T01:00:43.480Z,16.53
2019-06-10T01:01:43.491Z,16.50
2019-06-10T01:02:43.459Z,16.44
2019-06-10T01:03:43.455Z,16.44
2019-06-10T01:04:43.440Z,16.48
2019-06-10T01:05:43.440Z,16.65
2019-06-10T01:06:43.417Z,16.56
2019-06-10T01:07:43.405Z,16.62
2019-06-10T01:08:43.398Z,16.60
2019-06-10T01:09:43.392Z,16.65
2019-06-10T01:10:44.301Z,16.73
2019-06-10T01:11:43.375Z,16.71
2019-06-10T01:12:43.352Z,16.73
2019-06-10T01:13:43.352Z,16.75
2019-06-10T01:14:43.329Z,16.71
2019-06-10T01:15:43.326Z,16.74
2019-06-10T01:16:43.307Z,16.78
2019-06-10T01:17:43.307Z,16.71
2019-06-10T01:18:43.289Z,16.74
2019-06-10T01:19:43.277Z,16.68
2019-06-10T01:20:43.265Z,16.71
2019-06-10T01:21:43.258Z,16.60
2019-06-10T01:22:43.244Z,16.56
2019-06-10T01:23:43.240Z,16.48
2019-06-10T01:24:43.219Z,16.45
2019-06-10T01:25:43.208Z,16.49
2019-06-10T01:26:43.201Z,16.49
2019-06-10T01:27:43.191Z,16.44
2019-06-10T01:28:43.182Z,16.34
2019-06-10T01:29:43.183Z,16.34
2019-06-10T01:30:43.153Z,16.35
2019-06-10T01:31:43.143Z,16.33
2019-06-10T01:32:43.132Z,16.31
2019-06-10T01:33:43.126Z,16.33
2019-06-10T01:34:43.111Z,16.40
2019-06-10T01:35:43.111Z,16.33
2019-06-10T01:36:43.094Z,16.26
2019-06-10T01:37:43.079Z,16.23
2019-06-10T01:38:43.074Z,16.34
2019-06-10T01:39:43.062Z,16.37
2019-06-10T01:40:43.047Z,16.34
2019-06-10T01:41:43.050Z,16.26
2019-06-10T01:42:43.024Z,16.18
2019-06-10T01:43:43.016Z,16.14
2019-06-10T01:44:43.002Z,16.16
2019-06-10T01:45:42.993Z,16.16
2019-06-10T01:46:42.980Z,16.25
2019-06-10T01:47:42.978Z,16.31
2019-06-10T01:48:47.829Z,16.25
2019-06-10T01:49:43.945Z,16.38
2019-06-10T01:50:42.934Z,16.31
2019-06-10T01:51:42.928Z,16.26
2019-06-10T01:52:42.928Z,16.27
2019-06-10T01:53:42.916Z,16.31
2019-06-10T01:54:42.900Z,16.37
2019-06-10T01:55:42.883Z,16.30
2019-06-10T01:56:42.871Z,16.31
2019-06-10T01:57:42.860Z,16.26
2019-06-10T01:58:42.849Z,16.22
2019-06-10T01:59:42.847Z,16.23
2019-06-10T02:00:42.830Z,16.40
2019-06-10T02:01:42.816Z,16.30
2019-06-10T02:02:44.576Z,16.27
2019-06-10T02:03:42.793Z,16.27
2019-06-10T02:04:42.784Z,16.33
2019-06-10T02:05:42.783Z,16.37
2019-06-10T02:06:42.767Z,16.35
2019-06-10T02:07:42.751Z,16.26
2019-06-10T02:08:42.748Z,16.35
2019-06-10T02:09:42.727Z,16.31
2019-06-10T02:10:42.716Z,16.25
2019-06-10T02:11:42.718Z,16.30
2019-06-10T02:12:42.693Z,16.26
2019-06-10T02:13:42.683Z,16.30
2019-06-10T02:14:42.677Z,16.33
2019-06-10T02:15:42.660Z,16.38
2019-06-10T02:16:42.657Z,16.27
2019-06-10T02:17:42.655Z,16.22
2019-06-10T02:18:56.871Z,16.25
2019-06-10T02:19:43.618Z,16.26
2019-06-10T02:20:42.607Z,16.30
2019-06-10T02:21:42.600Z,16.30
2019-06-10T02:22:42.586Z,16.20
2019-06-10T02:23:42.585Z,16.33
2019-06-10T02:24:42.566Z,16.26
2019-06-10T02:25:42.550Z,16.31
2019-06-10T02:26:42.538Z,16.34
2019-06-10T02:27:42.528Z,16.27
2019-06-10T02:28:42.517Z,16.20
2019-06-10T02:29:42.523Z,16.38
2019-06-10T02:30:50.508Z,16.26
2019-06-10T02:31:43.827Z,16.25
2019-06-10T02:32:43.010Z,16.30
2019-06-10T02:33:42.466Z,16.27
2019-06-10T02:35:00.436Z,16.25
2019-06-10T02:35:48.879Z,16.31
2019-06-10T02:36:44.447Z,16.33
2019-06-10T02:37:44.463Z,16.34
2019-06-10T02:38:44.375Z,16.31
2019-06-10T02:39:43.951Z,16.31
2019-06-10T02:40:43.312Z,16.33
2019-06-10T02:41:44.664Z,16.37
2019-06-10T02:42:43.588Z,16.35
2019-06-10T02:43:44.144Z,16.34
2019-06-10T02:44:44.443Z,16.37
2019-06-10T02:45:44.477Z,16.38
2019-06-10T02:46:43.985Z,16.42
2019-06-10T02:47:44.385Z,16.45
2019-06-10T02:48:43.671Z,16.44
2019-06-10T02:49:56.780Z,16.33
2019-06-10T02:50:44.083Z,16.27
2019-06-10T02:51:43.705Z,16.30
2019-06-10T02:52:44.523Z,16.25
2019-06-10T02:53:43.403Z,16.38
2019-06-10T02:54:43.819Z,16.25
2019-06-10T02:55:43.372Z,16.27
2019-06-10T02:56:44.089Z,16.27
2019-06-10T02:57:44.985Z,16.25
2019-06-10T02:58:44.784Z,16.25
2019-06-10T02:59:43.548Z,16.27
2019-06-10T03:00:47.467Z,16.33
2019-06-10T03:01:44.196Z,16.33
2019-06-10T03:02:45.025Z,16.40
2019-06-10T03:03:45.885Z,16.26
2019-06-10T03:04:43.438Z,16.16
2019-06-10T03:05:46.532Z,16.34
2019-06-10T03:06:44.799Z,16.34
2019-06-10T03:07:44.368Z,16.34
2019-06-10T03:08:43.763Z,16.23
2019-06-10T03:09:42.813Z,16.27
2019-06-10T03:10:44.298Z,16.27
2019-06-10T03:11:44.798Z,16.25
2019-06-10T03:12:42.450Z,16.18
2019-06-10T03:13:42.628Z,16.14
2019-06-10T03:14:42.313Z,16.14
2019-06-10T03:15:42.701Z,16.09
2019-06-10T03:16:42.362Z,16.16
2019-06-10T03:17:42.900Z,16.22
2019-06-10T03:18:43.445Z,16.25
2019-06-10T03:19:47.822Z,16.22
2019-06-10T03:20:42.946Z,16.25
2019-06-10T03:21:42.893Z,16.22
2019-06-10T03:22:42.415Z,16.23
2019-06-10T03:23:42.640Z,16.23
2019-06-10T03:24:42.191Z,16.23
2019-06-10T03:25:42.289Z,16.25
2019-06-10T03:26:42.836Z,16.23
2019-06-10T03:27:42.409Z,16.26
2019-06-10T03:28:42.862Z,16.22
2019-06-10T03:29:42.197Z,16.31
2019-06-10T03:30:52.709Z,16.18
2019-06-10T03:31:47.727Z,16.27
2019-06-10T03:32:46.994Z,16.25
2019-06-10T03:33:47.432Z,16.22
2019-06-10T03:34:47.356Z,16.22
2019-06-10T03:35:42.786Z,16.25
2019-06-10T03:36:42.945Z,16.22
2019-06-10T03:37:42.429Z,16.20
2019-06-10T03:38:43.312Z,16.23
2019-06-10T03:39:42.673Z,16.14
2019-06-10T03:40:43.420Z,16.18
2019-06-10T03:41:42.347Z,16.18
2019-06-10T03:42:42.726Z,16.22
2019-06-10T03:43:43.019Z,16.18
2019-06-10T03:44:43.060Z,16.22
2019-06-10T03:45:42.567Z,16.15
2019-06-10T03:46:43.147Z,16.07
2019-06-10T03:47:42.712Z,16.14
2019-06-10T03:48:43.297Z,16.14
2019-06-10T03:49:52.390Z,16.03
2019-06-10T03:50:43.217Z,16.26
2019-06-10T03:51:42.853Z,16.22
2019-06-10T03:52:43.152Z,16.27
2019-06-10T03:53:42.541Z,16.15
2019-06-10T03:54:43.226Z,16.15
2019-06-10T03:55:42.380Z,16.15
2019-06-10T03:56:42.971Z,16.16
2019-06-10T03:57:42.319Z,16.14
2019-06-10T03:58:43.032Z,16.18
2019-06-10T03:59:42.207Z,16.11
2019-06-10T04:00:43.029Z,16.20
2019-06-10T04:01:42.656Z,16.07
2019-06-10T04:02:43.048Z,16.03
2019-06-10T04:03:42.684Z,16.06
2019-06-10T04:04:42.950Z,16.07
2019-06-10T04:05:42.337Z,16.06
2019-06-10T04:06:44.152Z,16.11
2019-06-10T04:07:42.749Z,16.11
2019-06-10T04:08:43.275Z,16.11
2019-06-10T04:09:42.532Z,16.06
2019-06-10T04:10:43.012Z,16.07
2019-06-10T04:11:43.051Z,16.04
2019-06-10T04:12:43.453Z,16.15
2019-06-10T04:13:43.124Z,16.07
2019-06-10T04:14:42.002Z,16.06
2019-06-10T04:15:43.167Z,16.11
2019-06-10T04:16:43.360Z,16.09
2019-06-10T04:17:42.806Z,16.04
2019-06-10T04:18:43.111Z,16.04
2019-06-10T04:19:42.111Z,16.04
2019-06-10T04:20:42.903Z,15.99
2019-06-10T04:21:43.247Z,15.94
2019-06-10T04:22:41.283Z,15.88
2019-06-10T04:23:42.455Z,15.92
2019-06-10T04:24:43.141Z,15.84
2019-06-10T04:25:42.731Z,15.85
2019-06-10T04:26:43.260Z,15.88
2019-06-10T04:27:42.495Z,15.92
2019-06-10T04:28:42.931Z,15.92
2019-06-10T04:29:42.212Z,15.93
2019-06-10T04:30:43.288Z,16.01
2019-06-10T04:31:42.518Z,16.01
2019-06-10T04:32:42.914Z,15.96
2019-06-10T04:33:42.074Z,15.97
2019-06-10T04:34:43.342Z,15.92
2019-06-10T04:35:42.723Z,15.78
2019-06-10T04:36:42.330Z,15.74
2019-06-10T04:37:42.805Z,15.82
2019-06-10T04:38:43.280Z,15.78
2019-06-10T04:39:42.779Z,15.79
2019-06-10T04:40:43.054Z,15.81
2019-06-10T04:41:42.609Z,15.86
2019-06-10T04:42:43.402Z,15.89
2019-06-10T04:43:43.165Z,15.84
2019-06-10T04:44:42.325Z,15.92
2019-06-10T04:45:42.936Z,15.85
2019-06-10T04:46:42.738Z,15.96
2019-06-10T04:47:43.045Z,16.00
2019-06-10T04:48:42.689Z,16.04
2019-06-10T04:49:42.856Z,16.03
2019-06-10T04:50:45.505Z,16.09
2019-06-10T04:51:43.405Z,16.04
2019-06-10T04:52:42.915Z,16.12
2019-06-10T04:53:43.237Z,16.03
2019-06-10T04:54:42.164Z,16.04
2019-06-10T04:55:43.044Z,16.09
2019-06-10T04:56:42.843Z,16.12
2019-06-10T04:57:42.921Z,16.12
2019-06-10T04:58:43.013Z,16.15
2019-06-10T04:59:42.846Z,16.12
2019-06-10T05:00:42.899Z,16.18
2019-06-10T05:01:42.601Z,16.12
2019-06-10T05:02:43.032Z,16.11
2019-06-10T05:03:43.214Z,16.16
2019-06-10T05:04:42.646Z,16.23
2019-06-10T05:05:42.933Z,16.20
2019-06-10T05:06:42.231Z,16.16
2019-06-10T05:07:42.799Z,16.16
2019-06-10T05:08:42.561Z,16.15
2019-06-10T05:09:42.204Z,16.26
2019-06-10T05:10:42.418Z,16.31
2019-06-10T05:11:42.833Z,16.25
2019-06-10T05:12:43.117Z,16.31
2019-06-10T05:13:42.881Z,16.30
2019-06-10T05:14:43.118Z,16.23
2019-06-10T05:15:43.177Z,16.15
2019-06-10T05:16:42.861Z,16.22
2019-06-10T05:17:43.048Z,16.14
2019-06-10T05:18:42.427Z,16.15
2019-06-10T05:19:42.809Z,16.06
2019-06-10T05:20:54.064Z,16.11
2019-06-10T05:21:42.336Z,16.18
2019-06-10T05:22:42.369Z,16.15
2019-06-10T05:23:42.782Z,16.18
2019-06-10T05:24:42.437Z,16.25
2019-06-10T05:25:42.655Z,16.16
2019-06-10T05:26:42.618Z,16.14
2019-06-10T05:27:42.734Z,16.25
2019-06-10T05:28:42.957Z,16.23
2019-06-10T05:29:42.220Z,16.16
2019-06-10T05:30:42.649Z,16.34
2019-06-10T05:31:43.243Z,16.31
2019-06-10T05:32:43.017Z,16.35
2019-06-10T05:33:42.638Z,16.42
2019-06-10T05:34:43.514Z,16.44
2019-06-10T05:35:42.591Z,16.49
2019-06-10T05:36:43.280Z,16.53
2019-06-10T05:37:42.296Z,16.55
2019-06-10T05:38:43.181Z,16.59
2019-06-10T05:39:42.381Z,16.56
2019-06-10T05:40:42.678Z,16.45
2019-06-10T05:41:43.067Z,16.55
2019-06-10T05:42:42.433Z,16.59
2019-06-10T05:43:42.775Z,16.58
2019-06-10T05:44:40.387Z,16.67
2019-06-10T05:45:42.333Z,16.53
2019-06-10T05:46:40.353Z,16.67
2019-06-10T05:47:42.607Z,16.55
2019-06-10T05:48:40.330Z,16.45
2019-06-10T05:49:42.899Z,16.40
2019-06-10T05:50:42.663Z,16.41
2019-06-10T05:51:42.355Z,16.38
2019-06-10T05:52:42.538Z,16.37
2019-06-10T05:53:42.260Z,16.37
2019-06-10T05:54:40.268Z,16.31
2019-06-10T05:55:42.608Z,16.35
2019-06-10T05:56:40.243Z,16.52
2019-06-10T05:57:42.628Z,16.55
2019-06-10T05:58:40.221Z,16.60
2019-06-10T05:59:40.210Z,16.50
2019-06-10T06:00:40.200Z,16.38
2019-06-10T06:01:42.880Z,16.26
2019-06-10T06:02:40.181Z,16.23
2019-06-10T06:03:40.177Z,16.37
2019-06-10T06:04:40.159Z,16.34
2019-06-10T06:05:40.148Z,16.33
2019-06-10T06:06:42.484Z,16.23
2019-06-10T06:07:42.148Z,16.20
2019-06-10T06:08:42.645Z,16.27
2019-06-10T06:09:42.567Z,16.34
2019-06-10T06:10:42.225Z,16.37
2019-06-10T06:11:40.090Z,16.38
2019-06-10T06:12:42.237Z,16.44
2019-06-10T06:13:40.060Z,16.50
2019-06-10T06:14:42.445Z,16.63
2019-06-10T06:15:42.263Z,16.71
2019-06-10T06:16:42.999Z,16.85
2019-06-10T06:17:40.016Z,16.83
2019-06-10T06:18:42.222Z,16.93
2019-06-10T06:19:40.032Z,16.95
2019-06-10T06:20:39.983Z,17.00
2019-06-10T06:21:46.415Z,17.15
2019-06-10T06:22:42.816Z,17.11
2019-06-10T06:23:39.949Z,17.14
2019-06-10T06:24:39.939Z,17.13
2019-06-10T06:25:46.217Z,16.99
2019-06-10T06:26:43.175Z,17.13
2019-06-10T06:27:41.958Z,17.25
2019-06-10T06:28:42.855Z,17.33
2019-06-10T06:29:39.892Z,17.44
2019-06-10T06:30:42.136Z,17.57
2019-06-10T06:31:39.864Z,17.69
2019-06-10T06:32:39.866Z,17.69
2019-06-10T06:33:39.985Z,17.74
2019-06-10T06:34:39.832Z,17.88
2019-06-10T06:35:43.686Z,18.00
2019-06-10T06:36:42.258Z,18.07
2019-06-10T06:37:39.818Z,18.28
2019-06-10T06:38:39.798Z,18.59
2019-06-10T06:39:39.777Z,18.65
2019-06-10T06:40:39.766Z,18.54
2019-06-10T06:41:42.442Z,18.59
2019-06-10T06:42:39.747Z,18.54
2019-06-10T06:43:44.332Z,18.54
2019-06-10T06:44:43.123Z,18.46
2019-06-10T06:45:42.447Z,18.50
2019-06-10T06:46:39.823Z,18.49
2019-06-10T06:47:39.696Z,18.25
2019-06-10T06:48:40.993Z,18.22
2019-06-10T06:49:39.681Z,18.12
2019-06-10T06:50:54.626Z,18.03
2019-06-10T06:51:51.921Z,17.97
2019-06-10T06:53:13.976Z,18.12
2019-06-10T06:53:48.371Z,18.22
2019-06-10T06:54:42.482Z,18.28
2019-06-10T06:55:39.824Z,18.33
2019-06-10T06:56:41.203Z,18.22
2019-06-10T06:57:40.136Z,18.24
2019-06-10T06:58:40.125Z,18.24
2019-06-10T06:59:40.859Z,18.33
2019-06-10T07:00:57.860Z,18.33
2019-06-10T07:01:43.316Z,18.44
2019-06-10T07:02:40.874Z,18.42
2019-06-10T07:03:41.836Z,18.44
2019-06-10T07:04:41.140Z,18.31
2019-06-10T07:05:41.049Z,18.27
2019-06-10T07:06:40.436Z,18.22
2019-06-10T07:07:41.086Z,18.24
2019-06-10T07:08:40.784Z,18.09
2019-06-10T07:09:40.553Z,18.12
2019-06-10T07:10:40.777Z,18.17
2019-06-10T07:11:41.116Z,18.31
2019-06-10T07:12:43.306Z,18.29
2019-06-10T07:13:40.724Z,18.33
2019-06-10T07:14:40.833Z,18.25
2019-06-10T07:15:42.220Z,18.27
2019-06-10T07:16:44.237Z,18.37
2019-06-10T07:17:44.431Z,18.43
2019-06-10T07:18:46.343Z,18.49
2019-06-10T07:19:42.091Z,18.57
2019-06-10T07:20:41.655Z,18.50
2019-06-10T07:21:58.413Z,18.54
2019-06-10T07:22:41.880Z,18.46
2019-06-10T07:23:44.533Z,18.50
2019-06-10T07:24:43.110Z,18.65
2019-06-10T07:25:42.474Z,18.62
2019-06-10T07:26:46.199Z,18.84
2019-06-10T07:27:45.119Z,18.84
2019-06-10T07:28:42.534Z,18.65
2019-06-10T07:29:41.457Z,18.64
2019-06-10T07:30:47.254Z,18.67
2019-06-10T07:31:43.448Z,18.70
2019-06-10T07:32:41.505Z,18.70
2019-06-10T07:33:43.023Z,18.79
2019-06-10T07:34:41.679Z,18.97
2019-06-10T07:35:39.188Z,18.94
2019-06-10T07:36:39.188Z,18.95
2019-06-10T07:37:39.454Z,18.92
2019-06-10T07:38:41.081Z,19.10
2019-06-10T07:39:39.599Z,18.91
2019-06-10T07:40:39.254Z,18.98
2019-06-10T07:41:39.347Z,19.08
2019-06-10T07:42:39.122Z,19.13
2019-06-10T07:43:42.430Z,19.06
2019-06-10T07:44:41.588Z,19.06
2019-06-10T07:45:41.599Z,18.95
2019-06-10T07:46:43.465Z,19.14
2019-06-10T07:47:39.087Z,19.17
2019-06-10T07:48:41.084Z,19.21
2019-06-10T07:49:39.330Z,19.32
2019-06-10T07:50:39.332Z,19.51
2019-06-10T07:51:39.385Z,19.66
2019-06-10T07:52:39.369Z,19.55
2019-06-10T07:53:40.016Z,19.48
2019-06-10T07:54:39.307Z,19.54
2019-06-10T07:55:39.550Z,19.58
2019-06-10T07:56:45.211Z,19.58
2019-06-10T07:57:42.631Z,19.76
2019-06-10T07:58:40.138Z,19.83
2019-06-10T07:59:39.550Z,19.87
2019-06-10T08:00:40.217Z,19.88
2019-06-10T08:01:45.946Z,19.95
2019-06-10T08:02:42.809Z,19.88
2019-06-10T08:03:39.824Z,19.70
2019-06-10T08:04:39.857Z,19.39
2019-06-10T08:05:40.047Z,19.42
2019-06-10T08:06:39.872Z,19.36
2019-06-10T08:07:38.916Z,19.35
2019-06-10T08:08:38.898Z,19.58
2019-06-10T08:09:39.090Z,19.63
2019-06-10T08:10:39.132Z,19.83
2019-06-10T08:11:39.287Z,19.84
2019-06-10T08:12:39.303Z,20.03
2019-06-10T08:13:39.325Z,20.02
2019-06-10T08:14:39.526Z,20.16
2019-06-10T08:15:39.719Z,20.35
2019-06-10T08:16:39.850Z,20.62
2019-06-10T08:17:40.404Z,20.68
2019-06-10T08:18:51.056Z,20.64
2019-06-10T08:19:45.444Z,20.89
2019-06-10T08:20:42.206Z,21.30
2019-06-10T08:21:39.014Z,21.50
2019-06-10T08:22:45.401Z,21.53
2019-06-10T08:23:40.252Z,21.79
2019-06-10T08:24:39.361Z,22.06
2019-06-10T08:25:38.657Z,22.20
2019-06-10T08:26:39.393Z,22.41
2019-06-10T08:27:38.630Z,22.47
2019-06-10T08:28:39.620Z,22.52
2019-06-10T08:29:38.711Z,21.99
2019-06-10T08:30:39.770Z,21.54
2019-06-10T08:31:38.873Z,21.45
2019-06-10T08:32:39.976Z,21.46
2019-06-10T08:33:39.027Z,21.66
2019-06-10T08:34:38.560Z,21.85
2019-06-10T08:35:46.093Z,22.02
2019-06-10T08:36:42.176Z,22.14
2019-06-10T08:37:40.761Z,22.10
2019-06-10T08:38:38.519Z,22.04
2019-06-10T08:39:38.509Z,21.71
2019-06-10T08:40:38.496Z,21.45
2019-06-10T08:41:38.562Z,21.46
2019-06-10T08:42:38.974Z,21.48
2019-06-10T08:43:38.594Z,21.64
2019-06-10T08:44:38.866Z,21.90
2019-06-10T08:45:38.927Z,22.01
2019-06-10T08:46:38.815Z,22.07
2019-06-10T08:47:39.198Z,22.10
2019-06-10T08:48:39.061Z,22.16
2019-06-10T08:49:39.166Z,22.20
2019-06-10T08:50:39.341Z,22.06
2019-06-10T08:51:39.660Z,22.02
2019-06-10T08:52:53.920Z,22.01
2019-06-10T08:53:39.488Z,22.02
2019-06-10T08:54:40.488Z,22.09
2019-06-10T08:55:39.605Z,22.04
2019-06-10T08:56:38.916Z,22.22
2019-06-10T08:57:38.936Z,22.31
2019-06-10T08:58:39.012Z,22.62
2019-06-10T08:59:39.683Z,22.87
2019-06-10T09:00:39.158Z,22.99
2019-06-10T09:01:40.461Z,23.02
2019-06-10T09:02:39.334Z,22.78
2019-06-10T09:03:39.903Z,22.50
2019-06-10T09:04:39.296Z,22.10
2019-06-10T09:05:40.450Z,21.91
2019-06-10T09:06:39.219Z,21.91
2019-06-10T09:07:39.414Z,22.07
2019-06-10T09:08:39.955Z,22.20
2019-06-10T09:09:39.280Z,22.38
2019-06-10T09:10:39.514Z,22.34
2019-06-10T09:11:39.300Z,22.46
2019-06-10T09:12:38.438Z,22.54
2019-06-10T09:13:39.175Z,22.35
2019-06-10T09:14:38.670Z,22.38
2019-06-10T09:15:39.131Z,22.29
2019-06-10T09:16:39.587Z,22.50
2019-06-10T09:17:39.704Z,22.53
2019-06-10T09:18:39.496Z,22.59
2019-06-10T09:19:38.766Z,22.62
2019-06-10T09:20:39.372Z,22.75
2019-06-10T09:21:40.399Z,22.89
2019-06-10T09:22:39.804Z,23.17
2019-06-10T09:23:39.251Z,23.32
2019-06-10T09:24:38.993Z,23.34
2019-06-10T09:25:39.216Z,23.17
2019-06-10T09:26:39.928Z,23.17
2019-06-10T09:27:40.078Z,23.45
2019-06-10T09:28:39.279Z,23.39
2019-06-10T09:29:39.592Z,23.29
2019-06-10T09:30:40.461Z,23.40
2019-06-10T09:31:39.464Z,23.71
2019-06-10T09:32:37.955Z,23.75
2019-06-10T09:33:37.941Z,23.72
2019-06-10T09:34:37.933Z,23.80
2019-06-10T09:35:37.931Z,23.80
2019-06-10T09:36:37.930Z,23.86
2019-06-10T09:37:37.904Z,24.07
2019-06-10T09:38:37.887Z,24.16
2019-06-10T09:39:37.878Z,23.94
2019-06-10T09:40:37.867Z,23.57
2019-06-10T09:41:43.027Z,23.04
2019-06-10T09:42:41.574Z,22.49
2019-06-10T09:43:40.465Z,22.29
2019-06-10T09:44:37.829Z,22.25
2019-06-10T09:45:37.818Z,22.10
2019-06-10T09:46:37.806Z,22.07
2019-06-10T09:47:37.810Z,22.22
2019-06-10T09:48:38.289Z,22.31
2019-06-10T09:49:37.776Z,22.01
2019-06-10T09:50:37.783Z,21.90
2019-06-10T09:51:37.768Z,21.60
2019-06-10T09:52:37.743Z,21.61
2019-06-10T09:53:42.897Z,21.60
2019-06-10T09:54:38.720Z,21.61
2019-06-10T09:55:37.711Z,21.72
2019-06-10T09:56:37.703Z,21.75
2019-06-10T09:57:37.694Z,21.78
2019-06-10T09:58:37.711Z,22.04
2019-06-10T09:59:37.702Z,22.02
2019-06-10T10:00:37.657Z,22.20
2019-06-10T10:01:37.649Z,22.34
2019-06-10T10:02:37.637Z,22.43
2019-06-10T10:03:37.630Z,22.43
2019-06-10T10:04:37.701Z,22.29
2019-06-10T10:05:37.868Z,22.16
2019-06-10T10:06:37.596Z,22.14
2019-06-10T10:07:37.589Z,22.09
2019-06-10T10:08:37.575Z,22.09
2019-06-10T10:09:37.565Z,22.22
2019-06-10T10:10:37.556Z,22.13
2019-06-10T10:11:37.623Z,22.16
2019-06-10T10:12:37.529Z,22.16
2019-06-10T10:13:37.518Z,22.54
2019-06-10T10:14:37.508Z,22.64
2019-06-10T10:15:37.498Z,22.67
2019-06-10T10:16:37.487Z,22.74
2019-06-10T10:17:37.490Z,22.72
2019-06-10T10:18:37.463Z,22.78
2019-06-10T10:19:37.458Z,22.94
2019-06-10T10:20:37.445Z,23.04
2019-06-10T10:21:39.337Z,23.12
2019-06-10T10:22:37.436Z,23.15
2019-06-10T10:23:51.126Z,23.23
2019-06-10T10:24:38.400Z,23.23
2019-06-10T10:25:37.391Z,23.07
2019-06-10T10:26:37.378Z,23.01
2019-06-10T10:27:37.370Z,22.99
2019-06-10T10:28:37.366Z,22.92
2019-06-10T10:29:37.361Z,22.93
2019-06-10T10:30:37.338Z,22.75
2019-06-10T10:31:37.353Z,22.77
2019-06-10T10:32:37.320Z,22.75
2019-06-10T10:33:37.309Z,22.87
2019-06-10T10:34:37.298Z,23.04
2019-06-10T10:35:37.303Z,23.24
2019-06-10T10:36:37.915Z,23.49
2019-06-10T10:37:37.264Z,23.67
2019-06-10T10:38:37.258Z,23.97
2019-06-10T10:39:37.244Z,24.05
2019-06-10T10:40:37.237Z,24.16
2019-06-10T10:41:37.256Z,24.29
2019-06-10T10:42:44.882Z,24.45
2019-06-10T10:43:38.229Z,24.45
2019-06-10T10:44:37.202Z,24.27
2019-06-10T10:45:37.184Z,23.80
2019-06-10T10:46:37.172Z,23.50
2019-06-10T10:47:37.176Z,23.35
2019-06-10T10:48:37.155Z,23.27
2019-06-10T10:49:37.146Z,23.19
2019-06-10T10:50:37.131Z,23.08
2019-06-10T10:51:37.122Z,22.97
2019-06-10T10:52:37.115Z,23.11
2019-06-10T10:53:37.112Z,23.15
2019-06-10T10:54:37.091Z,23.34
2019-06-10T10:55:37.078Z,23.43
2019-06-10T10:56:37.071Z,23.62
2019-06-10T10:57:37.060Z,23.70
2019-06-10T10:58:37.052Z,23.64
2019-06-10T10:59:37.070Z,23.71
2019-06-10T11:00:37.606Z,23.72
2019-06-10T11:01:37.018Z,23.72
2019-06-10T11:02:37.007Z,23.61
2019-06-10T11:03:37.001Z,23.68
2019-06-10T11:04:36.994Z,23.50
2019-06-10T11:05:36.988Z,23.39
2019-06-10T11:06:36.972Z,23.34
2019-06-10T11:07:36.954Z,23.40
2019-06-10T11:08:36.949Z,23.27
2019-06-10T11:09:36.932Z,23.22
2019-06-10T11:10:36.925Z,23.23
2019-06-10T11:11:36.923Z,23.43
2019-06-10T11:12:36.930Z,23.53
2019-06-10T11:13:36.899Z,23.62
2019-06-10T11:14:36.884Z,23.68
2019-06-10T11:15:36.874Z,23.76
2019-06-10T11:16:36.862Z,23.87
2019-06-10T11:17:36.871Z,23.82
2019-06-10T11:18:36.850Z,23.72
2019-06-10T11:19:36.826Z,23.79
2019-06-10T11:20:36.818Z,23.77
2019-06-10T11:21:36.807Z,23.70
2019-06-10T11:22:36.800Z,23.70
2019-06-10T11:23:36.802Z,23.75
2019-06-10T11:24:41.050Z,23.83
2019-06-10T11:25:38.433Z,23.80
2019-06-10T11:26:36.764Z,23.85
2019-06-10T11:27:36.743Z,23.82
2019-06-10T11:28:36.732Z,23.68
2019-06-10T11:29:36.761Z,23.72
2019-06-10T11:30:36.713Z,23.70
2019-06-10T11:31:36.715Z,23.76
2019-06-10T11:32:36.689Z,23.72
2019-06-10T11:33:36.682Z,23.57
2019-06-10T11:34:36.667Z,23.70
2019-06-10T11:35:36.675Z,23.61
2019-06-10T11:36:36.647Z,23.46
2019-06-10T11:37:36.640Z,23.34
2019-06-10T11:38:36.633Z,23.22
2019-06-10T11:39:38.764Z,23.19
2019-06-10T11:40:36.610Z,23.27
2019-06-10T11:41:36.609Z,23.34
2019-06-10T11:42:36.588Z,23.57
2019-06-10T11:43:36.574Z,23.61
2019-06-10T11:44:36.564Z,23.64
2019-06-10T11:45:36.560Z,23.64
2019-06-10T11:46:36.549Z,23.68
2019-06-10T11:47:36.547Z,23.57
2019-06-10T11:48:36.525Z,23.46
2019-06-10T11:49:36.510Z,23.31
2019-06-10T11:50:36.503Z,23.50
2019-06-10T11:51:36.500Z,23.62
2019-06-10T11:52:36.479Z,23.82
2019-06-10T11:53:36.485Z,23.79
2019-06-10T11:54:50.588Z,23.80
2019-06-10T11:55:37.450Z,23.87
2019-06-10T11:56:36.440Z,23.92
2019-06-10T11:57:36.442Z,23.97
2019-06-10T11:58:36.425Z,23.82
2019-06-10T11:59:36.419Z,23.76
2019-06-10T12:00:36.408Z,23.72
2019-06-10T12:01:36.387Z,23.71
2019-06-10T12:02:36.372Z,23.80
2019-06-10T12:03:36.373Z,23.79
2019-06-10T12:04:36.353Z,23.90
2019-06-10T12:05:36.375Z,23.92
2019-06-10T12:06:36.332Z,24.12
2019-06-10T12:07:36.326Z,24.04
2019-06-10T12:08:36.325Z,24.12
2019-06-10T12:09:36.299Z,24.14
2019-06-10T12:10:36.297Z,24.13
2019-06-10T12:11:36.296Z,24.08
2019-06-10T12:12:36.269Z,23.92
2019-06-10T12:13:36.268Z,24.05
2019-06-10T12:14:36.252Z,24.10
2019-06-10T12:16:15.759Z,24.08
2019-06-10T12:17:47.170Z,24.20
2019-06-10T12:18:37.205Z,24.20
2019-06-10T12:19:36.209Z,24.34
2019-06-10T12:20:36.189Z,24.37
2019-06-10T12:21:36.174Z,24.47
2019-06-10T12:22:36.200Z,24.41
2019-06-10T12:23:36.149Z,24.42
2019-06-10T12:24:36.149Z,24.45
2019-06-10T12:25:39.531Z,24.44
2019-06-10T12:26:36.122Z,24.44
2019-06-10T12:27:36.114Z,24.38
2019-06-10T12:28:36.131Z,24.37
2019-06-10T12:29:36.092Z,24.39
2019-06-10T12:30:36.097Z,24.47
2019-06-10T12:31:36.071Z,24.57
2019-06-10T12:32:36.067Z,24.60
2019-06-10T12:33:36.084Z,24.71
2019-06-10T12:34:36.989Z,24.64
2019-06-10T12:35:36.030Z,24.57
2019-06-10T12:36:36.019Z,24.50
2019-06-10T12:37:36.020Z,24.45
2019-06-10T12:38:35.996Z,24.52
2019-06-10T12:39:35.993Z,24.59
2019-06-10T12:40:36.012Z,24.64
2019-06-10T12:41:35.984Z,24.64
2019-06-10T12:42:35.955Z,24.76
2019-06-10T12:43:35.953Z,24.90
2019-06-10T12:44:35.949Z,24.98
2019-06-10T12:45:35.925Z,25.12
2019-06-10T12:46:36.911Z,25.17
2019-06-10T12:47:35.915Z,25.17
2019-06-10T12:48:35.899Z,25.34
2019-06-10T12:49:35.884Z,25.39
2019-06-10T12:50:35.867Z,25.47
2019-06-10T12:51:35.858Z,25.47
2019-06-10T12:52:35.876Z,25.52
2019-06-10T12:53:35.837Z,25.59